Time;durP1;ratioP1;P1;durP2;ratioP2;P2;SDS_P1;SDS_P2;PMS_P1;PMS_P2;Temp;Humidity;BMP_temperature;BMP_pressure;BME280_temperature;BME280_humidity;BME280_pressure;Samples;Min_cycle;Max_cycle;Signal;HPM_P1;HPM_P2
2023/07/17 00:00:05;;;;;;;6.25;2.78;;;;;;;16.31;94.37;97475.78;5063820;28;20044;-54
2023/07/17 00:02:31;;;;;;;9.77;3.00;;;;;;;16.47;93.17;97477.25;5060911;28;20047;-54
2023/07/17 00:04:58;;;;;;;7.20;2.42;;;;;;;16.57;93.13;97478.25;5063821;28;20033;-55
2023/07/17 00:07:25;;;;;;;4.43;2.28;;;;;;;16.56;93.18;97477.47;5064052;28;20502;-54
2023/07/17 00:09:52;;;;;;;5.75;2.63;;;;;;;16.56;93.46;97482.09;5063414;28;20606;-56
2023/07/17 00:12:18;;;;;;;6.65;2.38;;;;;;;16.40;94.07;97486.91;5064493;28;20040;-56
2023/07/17 00:14:45;;;;;;;5.28;2.63;;;;;;;16.30;94.47;97483.16;5063135;28;20070;-53
2023/07/17 00:17:12;;;;;;;4.80;2.47;;;;;;;16.35;94.54;97491.31;5063517;28;20043;-55
2023/07/17 00:19:39;;;;;;;5.35;2.40;;;;;;;16.45;94.42;97486.84;5064087;28;20045;-54
2023/07/17 00:22:07;;;;;;;6.20;2.90;;;;;;;16.43;94.32;97486.34;5063599;28;20048;-57
2023/07/17 00:24:33;;;;;;;9.07;3.10;;;;;;;16.42;94.71;97480.06;5063529;28;20047;-53
2023/07/17 00:27:01;;;;;;;5.30;2.42;;;;;;;16.46;95.18;97488.47;5064076;28;20063;-57
2023/07/17 00:29:31;;;;;;;8.52;3.05;;;;;;;16.57;94.18;97475.53;5063491;28;20044;-57
2023/07/17 00:31:57;;;;;;;4.00;2.40;;;;;;;16.59;93.83;97470.59;5063299;28;20036;-56
2023/07/17 00:34:24;;;;;;;5.50;2.60;;;;;;;16.63;93.41;97474.38;5063399;28;20044;-56
2023/07/17 00:36:51;;;;;;;6.65;2.67;;;;;;;16.66;93.13;97470.25;5062978;28;20127;-57
2023/07/17 00:39:20;;;;;;;5.35;2.70;;;;;;;16.72;93.21;97471.81;5063145;28;20789;-56
2023/07/17 00:41:50;;;;;;;5.07;2.42;;;;;;;16.67;93.83;97480.09;5063257;28;20564;-57
2023/07/17 00:44:17;;;;;;;6.78;2.83;;;;;;;16.77;92.74;97485.47;5063012;28;20500;-57
2023/07/17 00:46:45;;;;;;;6.75;2.63;;;;;;;16.87;92.02;97481.78;5062618;28;20503;-57
2023/07/17 00:49:12;;;;;;;4.40;2.10;;;;;;;16.96;91.64;97479.22;5063814;28;20044;-57
2023/07/17 00:51:41;;;;;;;8.25;2.60;;;;;;;17.05;91.02;97480.25;5063875;28;20039;-55
2023/07/17 00:54:10;;;;;;;5.97;2.65;;;;;;;17.05;91.43;97479.41;5061410;28;20037;-56
2023/07/17 00:56:37;;;;;;;5.00;2.40;;;;;;;16.94;92.96;97471.31;5062151;28;20041;-57
2023/07/17 00:59:04;;;;;;;9.07;2.80;;;;;;;16.92;94.88;97473.53;5062170;28;20056;-57
2023/07/17 01:01:32;;;;;;;4.97;2.28;;;;;;;16.98;93.46;97475.09;5060758;28;20052;-55
2023/07/17 01:04:01;;;;;;;7.07;2.17;;;;;;;17.03;92.55;97475.03;5063375;28;20044;-55
2023/07/17 01:06:28;;;;;;;6.28;2.55;;;;;;;17.09;91.07;97464.88;5062318;28;20070;-55
2023/07/17 01:08:54;;;;;;;4.78;2.60;;;;;;;17.14;90.73;97474.94;5059952;28;20632;-53
2023/07/17 01:11:21;;;;;;;4.63;2.30;;;;;;;17.18;90.22;97477.91;5062746;28;20102;-55
2023/07/17 01:13:51;;;;;;;5.32;2.53;;;;;;;17.26;87.31;97483.56;5061001;28;20044;-54
2023/07/17 01:16:17;;;;;;;5.80;2.60;;;;;;;17.31;87.29;97482.66;5061443;28;20495;-56
2023/07/17 01:18:44;;;;;;;8.95;2.92;;;;;;;17.27;88.47;97476.13;5061313;28;20054;-56
2023/07/17 01:21:17;;;;;;;5.18;2.22;;;;;;;17.28;88.80;97481.31;5062359;28;20044;-55
2023/07/17 01:23:44;;;;;;;5.25;2.80;;;;;;;17.23;89.38;97480.56;5062523;28;20052;-54
2023/07/17 01:26:11;;;;;;;5.25;2.25;;;;;;;17.21;89.86;97480.06;5052178;28;20482;-56
2023/07/17 01:28:39;;;;;;;7.03;2.45;;;;;;;17.20;89.94;97487.44;5061548;28;20044;-54
2023/07/17 01:31:07;;;;;;;6.35;2.30;;;;;;;17.10;90.11;97493.06;5061539;28;20036;-57
2023/07/17 01:33:34;;;;;;;6.10;2.25;;;;;;;17.10;89.92;97490.31;5060100;28;20064;-56
2023/07/17 01:36:01;;;;;;;5.50;1.95;;;;;;;17.12;90.17;97491.66;5060813;28;20064;-55
2023/07/17 01:38:29;;;;;;;4.50;2.00;;;;;;;17.05;91.10;97493.91;5060523;28;20242;-57
2023/07/17 01:40:56;;;;;;;5.03;2.30;;;;;;;17.03;90.51;97491.44;5060060;28;20140;-56
2023/07/17 01:43:22;;;;;;;5.07;2.38;;;;;;;17.07;90.62;97493.63;5058393;28;20036;-57
2023/07/17 01:45:49;;;;;;;4.25;1.88;;;;;;;17.11;90.22;97483.72;5060229;28;20044;-56
2023/07/17 01:48:17;;;;;;;5.78;2.58;;;;;;;16.92;91.71;97484.47;5060967;28;20039;-54
2023/07/17 01:50:45;;;;;;;9.82;2.58;;;;;;;16.96;92.36;97484.69;5060491;28;20051;-56
2023/07/17 01:53:11;;;;;;;5.88;2.95;;;;;;;16.94;92.42;97481.41;5058612;28;20102;-55
2023/07/17 01:55:38;;;;;;;5.35;2.47;;;;;;;16.80;94.92;97492.25;5061191;28;20036;-54
2023/07/17 01:58:05;;;;;;;6.85;2.13;;;;;;;16.77;93.98;97494.47;5060970;28;20044;-54
2023/07/17 02:00:33;;;;;;;4.80;2.22;;;;;;;16.75;92.90;97493.94;5059731;28;20547;-55
2023/07/17 02:03:00;;;;;;;6.78;2.78;;;;;;;16.81;92.26;97493.88;5061934;28;20043;-57
2023/07/17 02:05:27;;;;;;;5.63;2.22;;;;;;;16.81;93.21;97497.41;5059976;28;20037;-52
2023/07/17 02:07:53;;;;;;;4.35;2.00;;;;;;;16.79;92.59;97494.16;5060767;28;20064;-57
2023/07/17 02:10:20;;;;;;;5.22;2.13;;;;;;;16.76;92.97;97495.56;5061523;28;20040;-54
2023/07/17 02:12:46;;;;;;;4.82;2.13;;;;;;;16.63;93.30;97502.53;5059708;28;20044;-54
2023/07/17 02:15:13;;;;;;;9.05;2.53;;;;;;;16.52;95.09;97495.53;5057390;28;20055;-54
2023/07/17 02:17:40;;;;;;;4.60;2.13;;;;;;;16.31;96.62;97487.53;5061552;28;20051;-55
2023/07/17 02:20:10;;;;;;;5.40;2.00;;;;;;;16.24;96.35;97500.69;5060326;28;20044;-57
2023/07/17 02:22:37;;;;;;;4.20;2.10;;;;;;;16.08;97.19;97497.28;5058106;28;20043;-55
2023/07/17 02:25:05;;;;;;;6.15;2.47;;;;;;;16.07;97.76;97495.66;5061534;28;20594;-55
2023/07/17 02:27:33;;;;;;;6.70;2.63;;;;;;;16.03;97.13;97503.59;5059852;28;20132;-55
2023/07/17 02:30:00;;;;;;;7.38;2.33;;;;;;;16.11;96.80;97500.25;5059424;28;20043;-55
2023/07/17 02:32:28;;;;;;;6.55;2.35;;;;;;;16.04;96.85;97493.47;5056690;28;20124;-54
2023/07/17 02:34:58;;;;;;;7.50;2.25;;;;;;;15.88;99.04;97509.13;5054521;28;20082;-53
2023/07/17 02:37:25;;;;;;;5.00;2.58;;;;;;;15.83;99.11;97512.72;5055868;28;20044;-53
2023/07/17 02:39:52;;;;;;;6.15;2.53;;;;;;;15.89;97.86;97513.50;5056354;28;20036;-55
2023/07/17 02:42:18;;;;;;;4.85;2.03;;;;;;;15.89;97.69;97514.31;5055811;28;20037;-57
2023/07/17 02:44:46;;;;;;;4.65;2.40;;;;;;;15.92;96.96;97512.94;5057337;28;20045;-57
2023/07/17 02:47:13;;;;;;;5.57;2.40;;;;;;;15.95;97.08;97517.84;5058518;28;20707;-57
2023/07/17 02:49:40;;;;;;;7.50;2.65;;;;;;;15.94;96.87;97517.03;5058045;28;20037;-56
2023/07/17 02:52:08;;;;;;;4.32;2.08;;;;;;;15.89;97.47;97514.31;5058695;28;20040;-57
2023/07/17 02:54:39;;;;;;;6.32;2.20;;;;;;;15.91;96.79;97520.31;5054032;28;20039;-57
2023/07/17 02:57:06;;;;;;;5.97;2.10;;;;;;;15.92;96.60;97524.66;5053916;28;20123;-57
2023/07/17 02:59:33;;;;;;;6.38;2.10;;;;;;;15.99;97.11;97527.91;5058991;28;20055;-57
2023/07/17 03:01:59;;;;;;;9.25;3.15;;;;;;;16.08;96.10;97527.31;5058535;28;20032;-57
2023/07/17 03:04:26;;;;;;;4.38;2.20;;;;;;;16.08;96.59;97536.34;5060870;28;20503;-57
2023/07/17 03:06:53;;;;;;;6.97;2.33;;;;;;;16.07;96.80;97531.97;5060066;28;20056;-57
2023/07/17 03:09:20;;;;;;;7.78;2.72;;;;;;;16.09;95.84;97535.22;5060314;28;20546;-57
2023/07/17 03:11:47;;;;;;;7.15;2.85;;;;;;;16.17;95.19;97541.16;5058120;28;20523;-57
2023/07/17 03:14:13;;;;;;;7.57;2.50;;;;;;;16.18;94.68;97540.88;5060099;28;20399;-57
2023/07/17 03:16:41;;;;;;;6.15;2.65;;;;;;;16.31;93.34;97538.63;5059587;28;20040;-56
2023/07/17 03:19:10;;;;;;;6.13;2.47;;;;;;;16.36;92.92;97535.84;5059247;28;20045;-57
2023/07/17 03:21:36;;;;;;;7.93;2.17;;;;;;;16.40;93.34;97538.81;5057126;28;20711;-57
2023/07/17 03:24:04;;;;;;;5.18;2.35;;;;;;;16.42;93.07;97544.81;5060257;28;20051;-57
2023/07/17 03:26:31;;;;;;;4.88;2.13;;;;;;;16.35;93.44;97543.22;5061814;28;20523;-57
2023/07/17 03:28:57;;;;;;;4.55;2.10;;;;;;;16.30;94.13;97542.44;5064069;28;20780;-57
2023/07/17 03:31:24;;;;;;;7.60;2.80;;;;;;;16.16;95.16;97542.28;5063948;28;20036;-57
2023/07/17 03:33:51;;;;;;;5.88;2.50;;;;;;;16.08;96.52;97538.25;5061939;28;20036;-57
2023/07/17 03:36:17;;;;;;;6.65;2.75;;;;;;;15.98;96.97;97536.41;5059532;28;20139;-56
2023/07/17 03:38:44;;;;;;;8.75;2.33;;;;;;;15.90;97.01;97536.97;5063572;28;20067;-53
2023/07/17 03:41:11;;;;;;;5.38;2.55;;;;;;;15.76;98.09;97545.78;5057956;28;20113;-52
2023/07/17 03:43:37;;;;;;;5.68;2.50;;;;;;;15.69;98.31;97542.53;5059349;28;20582;-55
2023/07/17 03:46:04;;;;;;;6.88;3.00;;;;;;;15.53;99.51;97552.72;5059521;28;20048;-57
2023/07/17 03:48:30;;;;;;;5.43;2.35;;;;;;;15.43;99.94;97551.69;5058153;28;20044;-57
2023/07/17 03:51:01;;;;;;;8.25;2.35;;;;;;;15.42;99.92;97550.06;5058978;28;20431;-57
2023/07/17 03:53:29;;;;;;;5.90;2.17;;;;;;;15.26;100.00;97554.72;5058836;28;20696;-57
2023/07/17 03:55:56;;;;;;;9.85;3.03;;;;;;;15.19;100.00;97557.75;5058279;28;20055;-56
2023/07/17 03:58:23;;;;;;;4.70;2.58;;;;;;;15.14;100.00;97549.59;5058978;28;20090;-57
2023/07/17 04:00:50;;;;;;;7.63;3.45;;;;;;;15.06;100.00;97559.16;5060581;28;20068;-57
2023/07/17 04:03:17;;;;;;;7.47;2.97;;;;;;;15.03;100.00;97556.16;5060770;28;19932;-56
2023/07/17 04:05:47;;;;;;;6.68;2.70;;;;;;;15.02;100.00;97557.25;5060193;28;20041;-56
2023/07/17 04:08:15;;;;;;;5.90;2.53;;;;;;;15.08;100.00;97553.44;5059601;28;20078;-56
2023/07/17 04:10:41;;;;;;;6.70;2.45;;;;;;;15.02;100.00;97558.09;5061636;28;20064;-57
2023/07/17 04:13:08;;;;;;;7.03;2.30;;;;;;;15.07;100.00;97565.41;5062189;28;20070;-57
2023/07/17 04:15:36;;;;;;;6.10;2.50;;;;;;;15.14;100.00;97565.16;5060705;28;20461;-57
2023/07/17 04:18:05;;;;;;;7.38;2.42;;;;;;;15.25;100.00;97563.22;5062139;28;20527;-56
2023/07/17 04:20:32;;;;;;;6.63;3.28;;;;;;;15.32;98.78;97570.00;5061519;28;20094;-57
2023/07/17 04:22:59;;;;;;;7.78;3.03;;;;;;;15.33;98.85;97568.06;5061367;28;20605;-57
2023/07/17 04:25:26;;;;;;;4.78;2.80;;;;;;;15.36;98.92;97569.44;5061832;28;20051;-57
2023/07/17 04:27:52;;;;;;;8.63;3.42;;;;;;;15.43;97.76;97578.97;5064178;28;20040;-57
2023/07/17 04:30:21;;;;;;;6.53;2.92;;;;;;;15.49;97.23;97577.03;5063669;28;20047;-56
2023/07/17 04:32:51;;;;;;;5.32;2.97;;;;;;;15.55;96.23;97572.38;5063019;28;20047;-57
2023/07/17 04:35:18;;;;;;;4.65;2.15;;;;;;;15.71;94.99;97581.31;5060403;28;20049;-54
2023/07/17 04:37:45;;;;;;;5.88;2.33;;;;;;;15.89;93.87;97576.28;5061125;28;20050;-53
2023/07/17 04:40:12;;;;;;;5.18;2.15;;;;;;;15.93;93.17;97580.09;5060867;28;20675;-55
2023/07/17 04:42:39;;;;;;;5.32;2.42;;;;;;;15.96;93.23;97585.03;5061653;28;20063;-54
2023/07/17 04:45:06;;;;;;;6.35;2.72;;;;;;;15.96;93.17;97588.56;5061491;28;20139;-53
2023/07/17 04:47:32;;;;;;;5.65;2.47;;;;;;;15.95;93.04;97586.94;5062785;28;20718;-53
2023/07/17 04:49:59;;;;;;;6.82;2.38;;;;;;;15.90;93.51;97586.09;5061744;28;20419;-56
2023/07/17 04:52:29;;;;;;;6.40;2.47;;;;;;;15.93;94.38;97591.00;5061431;28;20037;-55
2023/07/17 04:54:57;;;;;;;8.93;2.70;;;;;;;15.98;93.64;97591.00;5063907;28;20050;-56
2023/07/17 04:57:24;;;;;;;9.32;3.95;;;;;;;16.07;92.57;97580.31;5059669;28;20055;-58
2023/07/17 04:59:50;;;;;;;6.72;2.78;;;;;;;16.19;92.33;97588.16;5061147;28;20056;-59
2023/07/17 05:02:17;;;;;;;5.78;2.58;;;;;;;16.20;92.58;97587.88;5060680;28;20573;-57
2023/07/17 05:04:44;;;;;;;5.18;2.58;;;;;;;16.28;92.47;97583.72;5061121;28;20051;-52
2023/07/17 05:07:10;;;;;;;8.40;2.67;;;;;;;16.40;91.29;97583.34;5061594;28;20132;-56
2023/07/17 05:09:38;;;;;;;8.75;2.92;;;;;;;16.44;91.06;97587.16;5061429;28;20037;-56
2023/07/17 05:12:05;;;;;;;8.35;2.40;;;;;;;16.51;91.07;97586.81;5059481;28;20123;-56
2023/07/17 05:14:33;;;;;;;5.60;2.40;;;;;;;16.77;89.62;97592.88;5059280;28;20051;-57
2023/07/17 05:17:00;;;;;;;5.82;2.63;;;;;;;16.92;88.44;97593.88;5060959;28;20052;-54
2023/07/17 05:19:26;;;;;;;8.52;2.45;;;;;;;17.07;86.99;97592.09;5061912;28;20135;-49
2023/07/17 05:21:53;;;;;;;7.32;3.08;;;;;;;17.21;85.61;97595.78;5060997;28;20590;-54
2023/07/17 05:24:19;;;;;;;6.35;2.17;;;;;;;17.28;84.65;97598.16;5060631;28;20573;-56
2023/07/17 05:26:46;;;;;;;5.35;2.53;;;;;;;17.35;84.52;97597.81;5060227;28;20699;-57
2023/07/17 05:29:13;;;;;;;11.55;3.13;;;;;;;17.39;83.87;97593.38;5059929;28;20075;-57
2023/07/17 05:31:40;;;;;;;6.57;2.70;;;;;;;17.47;84.07;97609.16;5060824;28;20040;-56
2023/07/17 05:34:06;;;;;;;6.25;2.55;;;;;;;17.45;84.50;97610.56;5060988;28;20094;-52
2023/07/17 05:36:33;;;;;;;9.38;3.05;;;;;;;17.50;84.94;97608.59;5062192;28;20075;-55
2023/07/17 05:38:59;;;;;;;8.50;2.55;;;;;;;17.42;85.73;97604.59;5061073;28;20450;-55
2023/07/17 05:41:26;;;;;;;5.35;2.50;;;;;;;17.40;86.01;97614.19;5061189;28;20072;-52
2023/07/17 05:43:53;;;;;;;6.75;2.60;;;;;;;17.40;86.03;97620.47;5059048;28;20032;-59
2023/07/17 05:46:20;;;;;;;5.05;2.70;;;;;;;17.50;85.63;97616.81;5060301;28;20090;-55
2023/07/17 05:48:47;;;;;;;6.40;2.85;;;;;;;17.55;85.86;97622.22;5058997;28;20075;-55
2023/07/17 05:51:13;;;;;;;6.95;2.63;;;;;;;17.76;84.50;97618.44;5059090;28;20129;-55
2023/07/17 05:53:40;;;;;;;5.25;2.60;;;;;;;17.90;83.22;97613.03;5061463;28;20717;-53
2023/07/17 05:56:07;;;;;;;8.90;3.13;;;;;;;18.04;81.54;97615.88;5060341;28;20139;-55
2023/07/17 05:58:37;;;;;;;5.65;2.38;;;;;;;18.24;79.66;97622.22;5060274;28;20071;-50
2023/07/17 06:01:04;;;;;;;7.40;2.38;;;;;;;18.41;77.95;97625.25;5062580;28;20106;-58
2023/07/17 06:03:30;;;;;;;6.88;3.38;;;;;;;18.61;76.37;97619.72;5059872;28;20046;-53
2023/07/17 06:05:57;;;;;;;5.45;2.47;;;;;;;18.78;76.50;97630.13;5060785;28;20040;-50
2023/07/17 06:08:23;;;;;;;6.75;2.58;;;;;;;18.98;73.05;97624.31;5061387;28;20044;-56
2023/07/17 06:10:50;;;;;;;6.13;2.67;;;;;;;19.16;72.59;97629.28;5061808;28;20040;-55
2023/07/17 06:13:19;;;;;;;6.10;2.47;;;;;;;19.13;71.98;97622.47;5058527;28;20492;-53
2023/07/17 06:15:45;;;;;;;5.43;2.60;;;;;;;19.22;69.98;97631.63;5060935;28;20648;-51
2023/07/17 06:18:12;;;;;;;7.53;2.60;;;;;;;19.33;70.40;97634.16;5061640;28;20048;-56
2023/07/17 06:20:39;;;;;;;5.60;2.00;;;;;;;19.35;69.28;97637.44;5064592;28;20036;-49
2023/07/17 06:23:05;;;;;;;6.15;2.25;;;;;;;19.49;68.68;97632.75;5062901;28;20090;-44
2023/07/17 06:25:34;;;;;;;5.93;2.22;;;;;;;19.65;69.03;97637.94;5062110;28;20053;-49
2023/07/17 06:28:00;;;;;;;9.70;2.80;;;;;;;19.66;67.97;97634.09;5062755;28;20608;-48
2023/07/17 06:30:27;;;;;;;8.40;2.85;;;;;;;19.66;68.05;97644.25;5062443;28;20044;-46
2023/07/17 06:32:53;;;;;;;7.65;2.88;;;;;;;19.73;67.60;97639.16;5062572;28;20040;-49
2023/07/17 06:35:20;;;;;;;5.63;2.20;;;;;;;19.87;67.20;97639.94;5062234;28;20040;-49
2023/07/17 06:37:46;;;;;;;6.25;2.60;;;;;;;19.84;67.16;97645.25;5058864;28;20048;-50
2023/07/17 06:40:13;;;;;;;5.28;2.38;;;;;;;19.87;66.40;97641.91;5063036;28;20032;-47
2023/07/17 06:42:39;;;;;;;8.88;2.28;;;;;;;19.78;65.69;97644.53;5059793;28;20116;-56
2023/07/17 06:45:07;;;;;;;7.25;2.80;;;;;;;19.92;66.84;97640.97;5059708;28;20870;-55
2023/07/17 06:47:33;;;;;;;4.65;2.00;;;;;;;20.03;65.96;97642.41;5059522;28;20418;-56
2023/07/17 06:50:04;;;;;;;5.30;2.55;;;;;;;20.14;65.36;97634.75;5061221;28;20067;-54
2023/07/17 06:52:31;;;;;;;7.53;3.15;;;;;;;20.20;64.74;97632.72;5060918;28;20047;-53
2023/07/17 06:54:58;;;;;;;7.20;2.97;;;;;;;20.26;63.71;97631.47;5058996;28;20045;-57
2023/07/17 06:57:27;;;;;;;9.20;3.42;;;;;;;20.37;63.47;97634.78;5059226;28;20056;-55
2023/07/17 06:59:53;;;;;;;9.27;3.20;;;;;;;20.46;61.79;97637.63;5061946;28;20044;-55
2023/07/17 07:02:20;;;;;;;6.32;3.25;;;;;;;20.42;61.17;97645.69;5061098;28;20037;-56
2023/07/17 07:04:46;;;;;;;7.25;3.20;;;;;;;20.52;59.77;97650.13;5058768;28;20036;-57
2023/07/17 07:07:13;;;;;;;6.97;2.88;;;;;;;20.63;60.45;97643.28;5060767;28;20041;-55
2023/07/17 07:09:43;;;;;;;7.97;3.35;;;;;;;20.70;59.83;97653.00;5059531;28;20044;-57
2023/07/17 07:12:10;;;;;;;8.65;3.60;;;;;;;20.86;58.10;97646.00;5061704;28;20040;-57
2023/07/17 07:14:36;;;;;;;8.50;3.08;;;;;;;20.90;57.92;97644.28;5060218;28;20048;-56
2023/07/17 07:17:03;;;;;;;8.60;3.33;;;;;;;20.90;56.01;97644.28;5061347;28;20672;-55
2023/07/17 07:19:29;;;;;;;6.90;3.13;;;;;;;20.97;55.82;97643.06;5060078;28;20048;-57
2023/07/17 07:21:56;;;;;;;5.07;2.70;;;;;;;21.03;55.62;97639.84;5058753;28;20040;-55
2023/07/17 07:24:22;;;;;;;8.40;3.00;;;;;;;21.15;56.07;97650.28;5061962;28;20104;-57
2023/07/17 07:26:49;;;;;;;7.93;3.15;;;;;;;21.26;53.71;97636.25;5060635;28;20041;-57
2023/07/17 07:29:15;;;;;;;7.00;3.25;;;;;;;21.35;55.91;97637.09;5060440;28;20045;-57
2023/07/17 07:31:42;;;;;;;8.75;3.55;;;;;;;21.33;52.84;97641.31;5059891;28;20594;-57
2023/07/17 07:34:09;;;;;;;6.63;3.08;;;;;;;21.39;51.43;97640.84;5060659;28;20044;-55
2023/07/17 07:36:35;;;;;;;8.30;3.35;;;;;;;21.41;50.67;97638.59;5059838;28;20102;-56
2023/07/17 07:39:05;;;;;;;6.35;3.10;;;;;;;21.44;50.33;97645.41;5061114;28;20612;-57
2023/07/17 07:41:32;;;;;;;9.02;3.28;;;;;;;21.55;49.55;97643.16;5060456;28;20043;-57
2023/07/17 07:43:59;;;;;;;8.23;3.80;;;;;;;21.67;49.52;97648.91;5060072;28;20536;-57
2023/07/17 07:46:26;;;;;;;7.25;3.30;;;;;;;21.66;48.16;97647.28;5060775;28;20066;-57
2023/07/17 07:48:53;;;;;;;8.30;3.53;;;;;;;21.75;47.91;97641.84;5061119;28;20145;-56
2023/07/17 07:51:20;;;;;;;10.05;3.70;;;;;;;21.84;49.97;97647.34;5060324;28;20085;-54
2023/07/17 07:53:46;;;;;;;8.57;4.70;;;;;;;21.95;47.47;97645.94;5058796;28;20403;-57
2023/07/17 07:56:13;;;;;;;9.77;3.97;;;;;;;21.95;45.72;97661.66;5060430;28;20058;-56
2023/07/17 07:58:39;;;;;;;8.00;3.58;;;;;;;21.95;44.84;97653.38;5060595;28;20033;-55
2023/07/17 08:01:06;;;;;;;10.90;3.97;;;;;;;22.04;44.49;97659.72;5061442;28;20044;-58
2023/07/17 08:03:33;;;;;;;9.85;3.97;;;;;;;22.20;45.18;97665.63;5059837;28;20044;-57
2023/07/17 08:06:00;;;;;;;7.30;3.03;;;;;;;22.15;44.21;97665.75;5059325;28;20041;-58
2023/07/17 08:08:27;;;;;;;7.43;3.50;;;;;;;22.14;45.09;97666.06;5060639;28;20051;-57
2023/07/17 08:10:53;;;;;;;8.05;3.45;;;;;;;22.30;44.26;97667.22;5063742;28;20049;-57
2023/07/17 08:13:20;;;;;;;7.80;3.03;;;;;;;22.29;44.29;97653.78;5063049;28;20040;-58
2023/07/17 08:15:47;;;;;;;7.50;3.05;;;;;;;22.47;45.65;97663.69;5063697;28;20147;-58
2023/07/17 08:18:14;;;;;;;8.07;3.53;;;;;;;22.57;44.20;97665.34;5063220;28;20048;-58
2023/07/17 08:20:41;;;;;;;8.23;3.70;;;;;;;22.64;43.34;97661.28;5063679;28;20048;-56
2023/07/17 08:23:08;;;;;;;7.47;3.28;;;;;;;22.68;41.00;97665.03;5063319;28;20059;-57
2023/07/17 08:25:34;;;;;;;6.05;3.08;;;;;;;22.68;42.18;97665.84;5063746;28;20049;-56
2023/07/17 08:28:01;;;;;;;7.38;3.40;;;;;;;22.68;42.66;97663.09;5062357;28;20134;-56
2023/07/17 08:30:27;;;;;;;7.45;3.63;;;;;;;22.78;44.14;97667.47;5064632;28;20882;-57
2023/07/17 08:32:54;;;;;;;8.40;3.13;;;;;;;22.72;41.18;97677.84;5062636;28;20049;-57
2023/07/17 08:35:20;;;;;;;7.00;3.70;;;;;;;22.76;40.89;97661.44;5062166;28;20048;-56
2023/07/17 08:37:47;;;;;;;7.03;2.85;;;;;;;22.93;42.57;97662.56;5062805;28;20059;-57
2023/07/17 08:40:13;;;;;;;5.53;2.85;;;;;;;23.03;41.45;97672.47;5062738;28;20052;-58
2023/07/17 08:42:45;;;;;;;6.53;3.03;;;;;;;22.93;40.98;97676.38;5063060;28;20037;-55
2023/07/17 08:45:13;;;;;;;7.82;3.58;;;;;;;22.94;40.41;97667.78;5061768;28;20415;-56
2023/07/17 08:47:40;;;;;;;7.45;3.40;;;;;;;22.84;42.27;97665.31;5063549;28;20512;-57
2023/07/17 08:50:08;;;;;;;9.00;4.57;;;;;;;22.60;42.90;97663.88;5063216;28;20055;-55
2023/07/17 08:52:35;;;;;;;7.53;3.28;;;;;;;22.56;41.90;97671.19;5063256;28;20040;-55
2023/07/17 08:55:01;;;;;;;10.00;3.72;;;;;;;22.57;42.97;97675.56;5062879;28;20080;-56
2023/07/17 08:57:31;;;;;;;11.48;3.78;;;;;;;22.42;41.75;97671.31;5061709;28;20041;-54
2023/07/17 08:59:57;;;;;;;6.80;3.20;;;;;;;22.51;42.83;97685.13;5062044;28;20051;-55
2023/07/17 09:02:25;;;;;;;8.55;3.35;;;;;;;22.60;43.17;97684.00;5063162;28;20138;-58
2023/07/17 09:04:51;;;;;;;6.57;3.60;;;;;;;22.71;43.07;97680.94;5062374;28;20075;-57
2023/07/17 09:07:18;;;;;;;6.10;3.15;;;;;;;22.85;41.26;97670.53;5062394;28;20070;-57
2023/07/17 09:09:45;;;;;;;6.07;3.47;;;;;;;22.98;41.56;97673.44;5062710;28;20503;-56
2023/07/17 09:12:12;;;;;;;7.10;3.22;;;;;;;23.04;41.98;97669.38;5064411;28;20036;-55
2023/07/17 09:14:39;;;;;;;8.85;3.83;;;;;;;23.03;41.20;97672.47;5062743;28;20047;-57
2023/07/17 09:17:09;;;;;;;6.10;2.92;;;;;;;22.92;42.16;97670.03;5062842;28;20098;-57
2023/07/17 09:19:36;;;;;;;6.85;2.90;;;;;;;23.04;42.68;97674.91;5062411;28;20087;-58
2023/07/17 09:22:05;;;;;;;6.57;3.20;;;;;;;23.05;42.71;97673.75;5061973;28;20048;-57
2023/07/17 09:24:33;;;;;;;5.07;2.97;;;;;;;22.73;42.32;97676.72;5061290;28;20439;-57
2023/07/17 09:27:00;;;;;;;5.57;3.22;;;;;;;22.63;43.12;97677.06;5061933;28;20043;-59
2023/07/17 09:29:26;;;;;;;10.23;3.45;;;;;;;22.78;43.08;97669.41;5062462;28;20052;-56
2023/07/17 09:31:54;;;;;;;6.60;3.50;;;;;;;22.90;42.62;97669.56;5061822;28;20045;-57
2023/07/17 09:34:21;;;;;;;7.97;3.53;;;;;;;22.84;43.71;97663.38;5062465;28;20067;-57
2023/07/17 09:36:51;;;;;;;9.43;3.50;;;;;;;22.89;44.24;97667.13;5062436;28;20128;-57
2023/07/17 09:39:22;;;;;;;9.45;3.58;;;;;;;22.91;43.53;97675.88;5062007;28;20054;-57
2023/07/17 09:41:48;;;;;;;10.60;3.63;;;;;;;23.06;44.15;97674.56;5061486;28;20071;-57
2023/07/17 09:44:18;;;;;;;8.85;3.35;;;;;;;23.19;43.73;97667.22;5061247;28;20068;-57
2023/07/17 09:46:46;;;;;;;8.27;3.45;;;;;;;22.91;44.15;97667.59;5061718;28;20435;-58
2023/07/17 09:49:13;;;;;;;10.85;3.78;;;;;;;22.91;43.61;97662.88;5061921;28;20044;-56
2023/07/17 09:51:40;;;;;;;6.75;3.63;;;;;;;23.01;44.17;97672.78;5060653;28;20040;-57
2023/07/17 09:54:08;;;;;;;8.60;3.92;;;;;;;23.19;44.63;97670.00;5060670;28;20036;-57
2023/07/17 09:56:36;;;;;;;9.68;3.92;;;;;;;23.51;44.51;97674.16;5061394;28;20668;-57
2023/07/17 09:59:14;;;;;;;7.90;3.75;;;;;;;23.61;44.08;97666.63;5060377;28;20078;-56
2023/07/17 10:01:47;;;;;;;6.55;3.58;;;;;;;23.77;44.84;97664.94;5059664;28;20040;-57
2023/07/17 10:04:21;;;;;;;6.88;3.80;;;;;;;23.74;44.40;97665.59;5060030;28;20177;-57
2023/07/17 10:06:51;;;;;;;7.10;3.55;;;;;;;23.84;45.08;97682.97;5061429;28;20495;-57
2023/07/17 10:09:18;;;;;;;7.03;3.70;;;;;;;23.61;45.89;97664.69;5061954;28;20056;-56
2023/07/17 10:11:44;;;;;;;6.40;3.75;;;;;;;23.68;45.29;97677.16;5060697;28;20040;-58
2023/07/17 10:14:11;;;;;;;8.43;4.05;;;;;;;23.93;45.66;97669.09;5061465;28;20091;-57
2023/07/17 10:16:39;;;;;;;7.55;3.65;;;;;;;24.10;44.75;97670.97;5061231;28;20048;-57
2023/07/17 10:19:07;;;;;;;7.97;3.38;;;;;;;23.99;43.89;97670.53;5060886;28;20072;-57
2023/07/17 10:21:34;;;;;;;7.00;3.58;;;;;;;23.86;43.97;97664.09;5061121;28;20051;-57
2023/07/17 10:24:04;;;;;;;7.55;3.65;;;;;;;23.73;42.45;97650.16;5061554;28;20053;-56
2023/07/17 10:26:31;;;;;;;6.60;3.20;;;;;;;23.66;42.09;97663.69;5059978;28;20044;-56
2023/07/17 10:29:00;;;;;;;7.82;3.67;;;;;;;23.96;43.52;97655.44;5059601;28;20094;-56
2023/07/17 10:31:27;;;;;;;8.02;3.67;;;;;;;24.02;42.93;97656.84;5060390;28;20069;-56
2023/07/17 10:33:58;;;;;;;8.10;3.40;;;;;;;23.65;44.22;97651.00;5059570;28;20106;-55
2023/07/17 10:36:39;;;;;;;;;;;;;;;23.64;43.43;97654.91;5060676;28;20051;-55
2023/07/17 10:39:11;;;;;;;7.57;3.40;;;;;;;23.74;44.86;97628.88;5061091;28;19924;-55
2023/07/17 10:41:37;;;;;;;6.57;3.53;;;;;;;23.93;42.16;97650.56;5059011;28;20052;-55
2023/07/17 10:44:06;;;;;;;7.07;3.55;;;;;;;23.68;44.16;97647.59;5060410;28;20511;-55
2023/07/17 10:46:45;;;;;;;8.45;3.75;;;;;;;23.70;45.55;97634.22;5058973;28;20042;-55
2023/07/17 10:49:14;;;;;;;7.70;3.10;;;;;;;23.60;43.93;97629.09;5060435;28;20056;-55
2023/07/17 10:51:47;;;;;;;6.10;3.30;;;;;;;23.87;43.33;97638.88;5060031;28;20036;-56
2023/07/17 10:54:16;;;;;;;6.55;3.45;;;;;;;24.15;41.86;97635.63;5058005;28;20067;-55
2023/07/17 10:56:45;;;;;;;7.03;3.35;;;;;;;24.47;40.01;97632.47;5058514;28;20040;-57
2023/07/17 10:59:19;;;;;;;7.18;3.70;;;;;;;24.53;39.55;97627.53;5059450;28;20182;-55
2023/07/17 11:01:46;;;;;;;6.15;3.13;;;;;;;24.82;40.87;97625.81;5059102;28;20082;-55
2023/07/17 11:04:13;;;;;;;6.07;3.10;;;;;;;24.84;39.89;97629.06;5059824;28;20580;-53
2023/07/17 11:06:39;;;;;;;8.77;3.70;;;;;;;24.82;40.91;97634.13;5059740;28;20133;-56
2023/07/17 11:09:07;;;;;;;6.97;3.55;;;;;;;24.86;41.07;97626.78;5062245;28;20527;-56
2023/07/17 11:11:33;;;;;;;6.78;3.45;;;;;;;24.83;41.62;97634.94;5060688;28;20119;-58
2023/07/17 11:14:00;;;;;;;8.52;3.75;;;;;;;24.89;41.19;97626.13;5060188;28;20072;-57
2023/07/17 11:16:27;;;;;;;7.78;3.00;;;;;;;24.77;41.43;97618.53;5060557;28;20071;-56
2023/07/17 11:18:56;;;;;;;7.13;3.10;;;;;;;25.18;42.14;97616.00;5060637;28;20047;-58
2023/07/17 11:21:25;;;;;;;7.85;2.72;;;;;;;25.40;40.36;97627.03;5058450;28;20045;-57
2023/07/17 11:23:53;;;;;;;10.70;3.50;;;;;;;25.56;39.20;97629.94;5059660;28;20064;-57
2023/07/17 11:26:21;;;;;;;7.95;3.28;;;;;;;25.20;40.02;97637.84;5060293;28;20055;-57
2023/07/17 11:28:50;;;;;;;7.50;3.83;;;;;;;24.67;41.07;97614.25;5060561;28;20067;-57
2023/07/17 11:31:23;;;;;;;8.05;2.92;;;;;;;24.75;40.81;97622.78;5060183;28;20037;-57
2023/07/17 11:33:55;;;;;;;7.82;3.08;;;;;;;24.92;40.03;97622.66;5058442;28;20089;-57